createdAt,value
2023-05-25T00:00:04.978Z,6
2023-05-25T00:01:13.524Z,5.5
2023-05-25T00:02:21.895Z,5.5
2023-05-25T00:03:30.329Z,5.5
2023-05-25T00:04:38.824Z,5.3
2023-05-25T00:05:47.120Z,5.3
2023-05-25T00:06:55.496Z,5.3
2023-05-25T00:08:04.049Z,5.2
2023-05-25T00:09:12.387Z,5.2
2023-05-25T00:10:20.724Z,5.2
2023-05-25T00:11:29.262Z,5.4
2023-05-25T00:12:37.599Z,5.4
2023-05-25T00:13:45.935Z,5.4
2023-05-25T00:14:54.494Z,5.1
2023-05-25T00:16:03.002Z,5.1
2023-05-25T00:17:11.225Z,5.1
2023-05-25T00:18:19.794Z,4.6
2023-05-25T00:19:28.100Z,4.6
2023-05-25T00:20:36.505Z,4.6
2023-05-25T00:21:44.972Z,4.8
2023-05-25T00:22:53.331Z,4.8
2023-05-25T00:24:01.670Z,4.8
2023-05-25T00:25:10.228Z,4.8
2023-05-25T00:26:18.723Z,4.8
2023-05-25T00:27:27.083Z,4.8
2023-05-25T00:28:35.674Z,5
2023-05-25T00:29:44.044Z,5
2023-05-25T00:30:52.390Z,5
2023-05-25T00:32:00.964Z,4.4
2023-05-25T00:33:09.351Z,4.4
2023-05-25T00:34:17.631Z,4.4
2023-05-25T00:35:26.162Z,5.1
2023-05-25T00:36:34.492Z,5.1
2023-05-25T00:37:42.883Z,5.1
2023-05-25T00:38:51.445Z,4.4
2023-05-25T00:39:59.786Z,4.4
2023-05-25T00:41:08.136Z,4.4
2023-05-25T00:42:16.681Z,5
2023-05-25T00:43:25.048Z,5
2023-05-25T00:44:33.398Z,5
2023-05-25T00:45:42.098Z,4.7
2023-05-25T00:46:50.448Z,4.7
2023-05-25T00:47:58.779Z,4.7
2023-05-25T00:49:07.300Z,4.2
2023-05-25T00:50:15.645Z,4.2
2023-05-25T00:51:23.991Z,4.2
2023-05-25T00:52:32.526Z,4.8
2023-05-25T00:53:40.891Z,4.8
2023-05-25T00:54:49.280Z,4.8
2023-05-25T00:55:57.808Z,4.7
2023-05-25T00:57:06.203Z,4.7
2023-05-25T00:58:14.549Z,4.7
2023-05-25T00:59:23.094Z,5
2023-05-25T01:00:31.439Z,5
2023-05-25T01:01:39.795Z,5
2023-05-25T01:02:48.437Z,5
2023-05-25T01:03:56.715Z,5
2023-05-25T01:05:05.020Z,5
2023-05-25T01:06:13.573Z,4.5
2023-05-25T01:07:21.937Z,4.5
2023-05-25T01:08:30.312Z,4.5
2023-05-25T01:09:38.882Z,4.8
2023-05-25T01:10:47.200Z,4.8
2023-05-25T01:11:55.571Z,4.8
2023-05-25T01:13:04.098Z,5.4
2023-05-25T01:14:12.448Z,5.4
2023-05-25T01:15:20.794Z,5.4
2023-05-25T01:16:29.347Z,4.8
2023-05-25T01:17:37.691Z,4.8
2023-05-25T01:18:46.035Z,4.8
2023-05-25T01:20:02.066Z,5.3
2023-05-25T01:21:03.041Z,5.3
2023-05-25T01:22:11.310Z,5.3
2023-05-25T01:23:19.861Z,5.4
2023-05-25T01:24:28.196Z,5.4
2023-05-25T01:25:36.558Z,5.4
2023-05-25T01:26:45.075Z,5.5
2023-05-25T01:27:53.437Z,5.5
2023-05-25T01:29:01.763Z,5.5
2023-05-25T01:30:10.307Z,5.7
2023-05-25T01:31:18.833Z,5.7
2023-05-25T01:32:27.183Z,5.7
2023-05-25T01:33:35.717Z,4.8
2023-05-25T01:34:44.088Z,4.8
2023-05-25T01:35:52.565Z,4.8
2023-05-25T01:37:00.975Z,5.8
2023-05-25T01:38:09.310Z,5.8
2023-05-25T01:39:17.655Z,5.8
2023-05-25T01:40:26.202Z,5.3
2023-05-25T01:41:34.532Z,5.3
2023-05-25T01:42:42.865Z,5.3
2023-05-25T01:43:51.468Z,5.3
2023-05-25T01:44:59.841Z,5.3
2023-05-25T01:46:08.189Z,5.3
2023-05-25T01:47:16.747Z,5.3
2023-05-25T01:48:25.092Z,5.3
2023-05-25T01:49:33.487Z,5.3
2023-05-25T01:50:42.019Z,5.8
2023-05-25T01:51:50.410Z,5.8
2023-05-25T01:52:58.700Z,5.8
2023-05-25T01:54:07.303Z,5.4
2023-05-25T01:55:15.666Z,5.4
2023-05-25T01:56:23.968Z,5.4
2023-05-25T01:57:32.572Z,5.5
2023-05-25T01:58:40.876Z,5.5
2023-05-25T01:59:49.271Z,5.5
2023-05-25T02:00:57.845Z,5.7
2023-05-25T02:02:06.168Z,5.7
2023-05-25T02:03:14.533Z,5.7
2023-05-25T02:04:23.092Z,5.2
2023-05-25T02:05:31.413Z,5.2
2023-05-25T02:06:39.748Z,5.2
2023-05-25T02:07:48.307Z,5.5
2023-05-25T02:08:56.622Z,5.5
2023-05-25T02:10:04.990Z,5.5
2023-05-25T02:11:13.536Z,5
2023-05-25T02:12:21.872Z,5
2023-05-25T02:13:30.249Z,5
2023-05-25T02:14:38.798Z,5.6
2023-05-25T02:15:47.209Z,5.6
2023-05-25T02:16:55.499Z,5.6
2023-05-25T02:18:04.160Z,5.9
2023-05-25T02:19:12.420Z,5.9
2023-05-25T02:20:20.812Z,5.9
2023-05-25T02:21:29.356Z,5.6
2023-05-25T02:22:37.676Z,5.6
2023-05-25T02:23:46.073Z,5.6
2023-05-25T02:24:54.589Z,5.4
2023-05-25T02:26:02.918Z,5.4
2023-05-25T02:27:11.296Z,5.4
2023-05-25T02:28:19.884Z,5.9
2023-05-25T02:29:28.237Z,5.9
2023-05-25T02:30:36.598Z,5.9
2023-05-25T02:31:45.196Z,5.1
2023-05-25T02:32:53.527Z,5.1
2023-05-25T02:34:01.852Z,5.1
2023-05-25T02:35:10.434Z,5.4
2023-05-25T02:36:19.480Z,5.4
2023-05-25T02:37:27.838Z,5.4
2023-05-25T02:38:36.433Z,5
2023-05-25T02:39:44.875Z,5
2023-05-25T02:40:53.163Z,5
2023-05-25T02:42:01.701Z,6
2023-05-25T02:43:10.077Z,6
2023-05-25T02:44:18.427Z,6
2023-05-25T02:45:26.954Z,6.6
2023-05-25T02:46:35.315Z,6.6
2023-05-25T02:47:43.660Z,6.6
2023-05-25T02:48:52.189Z,5.8
2023-05-25T02:50:00.552Z,5.8
2023-05-25T02:51:08.941Z,5.8
2023-05-25T02:52:17.463Z,6
2023-05-25T02:53:25.803Z,6
2023-05-25T02:54:34.157Z,6
2023-05-25T02:55:42.923Z,10.8
2023-05-25T02:56:51.076Z,10.8
2023-05-25T02:57:59.443Z,10.8
2023-05-25T02:59:08.001Z,9
2023-05-25T03:00:16.330Z,9
2023-05-25T03:01:24.761Z,9
2023-05-25T03:02:33.284Z,15.3
2023-05-25T03:03:41.649Z,15.3
2023-05-25T03:04:49.963Z,15.3
2023-05-25T03:05:58.545Z,14
2023-05-25T03:07:06.876Z,14
2023-05-25T03:08:15.212Z,14
2023-05-25T03:09:23.767Z,9.5
2023-05-25T03:10:32.125Z,9.5
2023-05-25T03:11:40.500Z,9.5
2023-05-25T03:12:48.998Z,6.5
2023-05-25T03:13:57.349Z,6.5
2023-05-25T03:15:05.694Z,6.5
2023-05-25T03:16:14.339Z,5.5
2023-05-25T03:17:22.812Z,5.5
2023-05-25T03:18:31.104Z,5.5
2023-05-25T03:19:39.662Z,5.8
2023-05-25T03:20:47.976Z,5.8
2023-05-25T03:21:56.340Z,5.8
2023-05-25T03:23:04.876Z,6.1
2023-05-25T03:24:13.262Z,6.1
2023-05-25T03:25:21.594Z,6.1
2023-05-25T03:26:30.160Z,6.4
2023-05-25T03:27:38.547Z,6.4
2023-05-25T03:28:46.856Z,6.4
2023-05-25T03:29:55.396Z,7
2023-05-25T03:31:03.746Z,7
2023-05-25T03:32:12.103Z,7
2023-05-25T03:33:20.687Z,7
2023-05-25T03:34:29.034Z,7
2023-05-25T03:35:37.413Z,7
2023-05-25T03:36:46.104Z,7.6
2023-05-25T03:37:54.324Z,7.6
2023-05-25T03:39:02.699Z,7.6
2023-05-25T03:40:11.240Z,8.2
2023-05-25T03:41:19.589Z,8.2
2023-05-25T03:42:27.953Z,8.2
2023-05-25T03:43:36.525Z,8.4
2023-05-25T03:44:44.877Z,8.4
2023-05-25T03:45:53.244Z,8.4
2023-05-25T03:47:01.777Z,8.5
2023-05-25T03:48:10.099Z,8.5
2023-05-25T03:49:18.462Z,8.5
2023-05-25T03:50:27.044Z,8.8
2023-05-25T03:51:35.382Z,8.8
2023-05-25T03:52:43.721Z,8.8
2023-05-25T03:53:52.352Z,9.7
2023-05-25T03:55:00.688Z,9.7
2023-05-25T03:56:09.067Z,9.7
2023-05-25T03:57:17.612Z,9.4
2023-05-25T03:58:25.956Z,9.4
2023-05-25T03:59:34.382Z,9.4
2023-05-25T04:00:42.855Z,10.5
2023-05-25T04:01:51.183Z,10.5
2023-05-25T04:02:59.708Z,10.5
2023-05-25T04:04:08.225Z,9.4
2023-05-25T04:05:16.466Z,9.4
2023-05-25T04:06:24.801Z,9.4
2023-05-25T04:07:33.375Z,10.2
2023-05-25T04:08:41.705Z,10.2
2023-05-25T04:09:50.093Z,10.2
2023-05-25T04:10:58.654Z,9.9
2023-05-25T04:12:07.012Z,9.9
2023-05-25T04:13:15.362Z,9.9
2023-05-25T04:14:23.912Z,9.9
2023-05-25T04:15:32.286Z,9.9
2023-05-25T04:16:40.689Z,9.9
2023-05-25T04:17:49.219Z,10.3
2023-05-25T04:18:57.556Z,10.3
2023-05-25T04:20:05.939Z,10.3
2023-05-25T04:21:14.437Z,10
2023-05-25T04:22:22.802Z,10
2023-05-25T04:23:31.177Z,10
2023-05-25T04:24:39.718Z,10.2
2023-05-25T04:25:48.082Z,10.2
2023-05-25T04:26:56.436Z,10.2
2023-05-25T04:28:05.009Z,10.4
2023-05-25T04:29:13.390Z,10.4
2023-05-25T04:30:21.712Z,10.4
2023-05-25T04:31:30.345Z,11.4
2023-05-25T04:32:38.653Z,11.4
2023-05-25T04:33:46.970Z,11.4
2023-05-25T04:34:55.515Z,10.9
2023-05-25T04:36:03.840Z,10.9
2023-05-25T04:37:12.211Z,10.9
2023-05-25T04:38:20.761Z,10.9
2023-05-25T04:39:29.101Z,10.9
2023-05-25T04:40:37.484Z,10.9
2023-05-25T04:41:46.061Z,11
2023-05-25T04:42:54.385Z,11
2023-05-25T04:44:08.302Z,11
2023-05-25T04:45:11.332Z,11.3
2023-05-25T04:46:19.728Z,11.3
2023-05-25T04:47:28.068Z,11.3
2023-05-25T04:48:36.577Z,10.5
2023-05-25T04:49:44.922Z,10.5
2023-05-25T04:50:53.258Z,10.5
2023-05-25T04:52:01.805Z,10.5
2023-05-25T04:53:10.178Z,10.5
2023-05-25T04:54:18.511Z,10.5
2023-05-25T04:55:27.056Z,10.3
2023-05-25T04:56:35.388Z,10.3
2023-05-25T04:57:44.313Z,10.3
2023-05-25T04:58:52.839Z,10.6
2023-05-25T05:00:01.225Z,10.6
2023-05-25T05:01:09.537Z,10.6
2023-05-25T05:02:18.142Z,10.5
2023-05-25T05:03:26.488Z,10.5
2023-05-25T05:04:34.759Z,10.5
2023-05-25T05:05:43.463Z,11.6
2023-05-25T05:06:51.665Z,11.6
2023-05-25T05:08:00.008Z,11.6
2023-05-25T05:09:08.573Z,12.1
2023-05-25T05:10:16.941Z,12.1
2023-05-25T05:11:25.305Z,12.1
2023-05-25T05:12:33.858Z,12.6
2023-05-25T05:13:42.203Z,12.6
2023-05-25T05:14:50.538Z,12.6
2023-05-25T05:15:59.100Z,13.4
2023-05-25T05:17:07.501Z,13.4
2023-05-25T05:18:15.795Z,13.4
2023-05-25T05:19:24.367Z,15.2
2023-05-25T05:20:32.722Z,15.2
2023-05-25T05:21:41.020Z,15.2
2023-05-25T05:22:49.586Z,13.1
2023-05-25T05:23:57.923Z,13.1
2023-05-25T05:25:06.284Z,13.1
2023-05-25T05:26:14.861Z,12.5
2023-05-25T05:27:23.208Z,12.5
2023-05-25T05:28:32.147Z,12.5
2023-05-25T05:29:40.696Z,11.7
2023-05-25T05:30:49.074Z,11.7
2023-05-25T05:31:57.531Z,11.7
2023-05-25T05:33:06.031Z,10.1
2023-05-25T05:34:15.115Z,10.1
2023-05-25T05:35:23.485Z,10.1
2023-05-25T05:36:38.912Z,10.5
2023-05-25T05:37:40.396Z,10.5
2023-05-25T05:38:48.743Z,10.5
2023-05-25T05:39:57.294Z,11
2023-05-25T05:41:05.642Z,11
2023-05-25T05:42:13.996Z,11
2023-05-25T05:43:22.544Z,10.5
2023-05-25T05:44:30.895Z,10.5
2023-05-25T05:45:39.247Z,10.5
2023-05-25T05:46:47.851Z,10.5
2023-05-25T05:47:56.249Z,10.5
2023-05-25T05:49:04.476Z,10.5
2023-05-25T05:50:13.024Z,10.9
2023-05-25T05:51:21.374Z,10.9
2023-05-25T05:52:29.752Z,10.9
2023-05-25T05:53:38.326Z,11.4
2023-05-25T05:54:46.669Z,11.4
2023-05-25T05:55:56.175Z,11.4
2023-05-25T05:57:03.574Z,11
2023-05-25T05:58:11.920Z,11
2023-05-25T05:59:20.283Z,11
2023-05-25T06:00:29.164Z,11.1
2023-05-25T06:01:38.787Z,11.1
2023-05-25T06:03:55.729Z,11
2023-05-25T06:05:04.130Z,11
2023-05-25T06:06:12.482Z,11
2023-05-25T06:07:21.078Z,10.8
2023-05-25T06:08:29.349Z,10.8
2023-05-25T06:09:37.677Z,10.8
2023-05-25T06:10:46.225Z,10.9
2023-05-25T06:11:54.616Z,10.9
2023-05-25T06:13:02.933Z,10.9
2023-05-25T06:14:11.492Z,10.7
2023-05-25T06:15:19.873Z,10.7
2023-05-25T06:16:28.209Z,10.7
2023-05-25T06:17:36.821Z,10.8
2023-05-25T06:18:45.117Z,10.8
2023-05-25T06:19:53.450Z,10.8
2023-05-25T06:21:02.037Z,10
2023-05-25T06:22:10.422Z,10
2023-05-25T06:23:18.753Z,10
2023-05-25T06:24:27.303Z,10.3
2023-05-25T06:25:35.675Z,10.3
2023-05-25T06:26:44.009Z,10.3
2023-05-25T06:27:52.575Z,11.5
2023-05-25T06:29:00.963Z,11.5
2023-05-25T06:30:09.275Z,11.5
2023-05-25T06:31:17.899Z,11
2023-05-25T06:32:26.273Z,11
2023-05-25T06:33:34.572Z,11
2023-05-25T06:34:43.114Z,9.8
2023-05-25T06:35:51.446Z,9.8
2023-05-25T06:36:59.795Z,9.8
2023-05-25T06:38:08.310Z,10.4
2023-05-25T06:39:16.749Z,10.4
2023-05-25T06:40:24.991Z,10.4
2023-05-25T06:41:33.531Z,9.1
2023-05-25T06:42:41.863Z,9.1
2023-05-25T06:43:50.196Z,9.1
2023-05-25T06:44:58.737Z,7.9
2023-05-25T06:46:07.123Z,7.9
2023-05-25T06:47:15.447Z,7.9
2023-05-25T06:48:23.985Z,9.2
2023-05-25T06:49:32.314Z,9.2
2023-05-25T06:50:40.668Z,9.2
2023-05-25T06:51:49.193Z,8.2
2023-05-25T06:52:59.138Z,8.2
2023-05-25T06:54:05.860Z,8.2
2023-05-25T06:55:14.449Z,7.7
2023-05-25T06:56:22.734Z,7.7
2023-05-25T06:57:31.069Z,7.7
2023-05-25T06:58:39.596Z,7.9
2023-05-25T06:59:47.939Z,7.9
2023-05-25T07:00:56.285Z,7.9
2023-05-25T07:02:04.808Z,7.9
2023-05-25T07:03:13.153Z,7.9
2023-05-25T07:04:21.497Z,7.9
2023-05-25T07:05:30.089Z,7.4
2023-05-25T07:06:38.373Z,7.4
2023-05-25T07:07:46.714Z,7.4
2023-05-25T07:08:55.258Z,7.3
2023-05-25T07:10:03.607Z,7.3
2023-05-25T07:11:11.968Z,7.3
2023-05-25T07:12:20.508Z,6.1
2023-05-25T07:13:28.838Z,6.1
2023-05-25T07:14:37.175Z,6.1
2023-05-25T07:15:45.950Z,7.6
2023-05-25T07:16:54.062Z,7.6
2023-05-25T07:18:02.417Z,7.6
2023-05-25T07:19:10.976Z,6.6
2023-05-25T07:20:19.319Z,6.6
2023-05-25T07:21:27.644Z,6.6
2023-05-25T07:22:36.198Z,6
2023-05-25T07:23:44.533Z,6
2023-05-25T07:24:52.859Z,6
2023-05-25T07:26:02.468Z,5.1
2023-05-25T07:27:09.785Z,5.1
2023-05-25T07:28:18.089Z,5.1
2023-05-25T07:29:26.626Z,5.5
2023-05-25T07:30:34.951Z,5.5
2023-05-25T07:31:43.303Z,5.5
2023-05-25T07:32:51.887Z,6.1
2023-05-25T07:34:00.180Z,6.1
2023-05-25T07:35:08.507Z,6.1
2023-05-25T07:36:17.054Z,5.2
2023-05-25T07:37:25.414Z,5.2
2023-05-25T07:38:34.295Z,5.2
2023-05-25T07:39:42.831Z,6.2
2023-05-25T07:40:51.168Z,6.2
2023-05-25T07:41:59.508Z,6.2
2023-05-25T07:43:08.566Z,5.8
2023-05-25T07:44:16.405Z,5.8
2023-05-25T07:45:24.724Z,5.8
2023-05-25T07:46:33.303Z,7
2023-05-25T07:47:41.676Z,7
2023-05-25T07:48:49.954Z,7
2023-05-25T07:49:58.498Z,6.4
2023-05-25T07:51:06.840Z,6.4
2023-05-25T07:52:15.194Z,6.4
2023-05-25T07:53:23.744Z,7.8
2023-05-25T07:54:32.085Z,7.8
2023-05-25T07:55:40.436Z,7.8
2023-05-25T07:56:48.975Z,7.4
2023-05-25T07:57:57.314Z,7.4
2023-05-25T07:59:05.682Z,7.4
2023-05-25T08:00:14.186Z,8.3
2023-05-25T08:01:23.229Z,8.3
2023-05-25T08:02:30.929Z,8.3
2023-05-25T08:03:48.737Z,7.9
2023-05-25T08:04:47.766Z,7.9
2023-05-25T08:05:56.086Z,7.9
2023-05-25T08:07:04.611Z,7.3
2023-05-25T08:08:12.950Z,7.3
2023-05-25T08:09:21.289Z,7.3
2023-05-25T08:10:29.823Z,6.8
2023-05-25T08:11:38.181Z,6.8
2023-05-25T08:12:48.378Z,6.8
2023-05-25T08:13:55.066Z,6.6
2023-05-25T08:15:03.432Z,6.6
2023-05-25T08:16:11.749Z,6.6
2023-05-25T08:17:20.379Z,8.2
2023-05-25T08:18:28.631Z,8.2
2023-05-25T08:19:37.025Z,8.2
2023-05-25T08:20:45.594Z,8.4
2023-05-25T08:21:53.913Z,8.4
2023-05-25T08:23:02.269Z,8.4
2023-05-25T08:24:10.814Z,7.8
2023-05-25T08:25:19.160Z,7.8
2023-05-25T08:26:38.245Z,7.8
2023-05-25T08:27:36.531Z,7.3
2023-05-25T08:28:44.560Z,7.3
2023-05-25T08:29:52.906Z,7.3
2023-05-25T08:31:01.658Z,7.9
2023-05-25T08:32:09.821Z,7.9
2023-05-25T08:33:18.174Z,7.9
2023-05-25T08:34:26.707Z,7.8
2023-05-25T08:35:35.055Z,7.8
2023-05-25T08:36:43.425Z,7.8
2023-05-25T08:37:51.980Z,8.3
2023-05-25T08:39:00.333Z,8.3
2023-05-25T08:40:08.689Z,8.3
2023-05-25T08:41:17.239Z,7.7
2023-05-25T08:42:25.622Z,7.7
2023-05-25T08:43:34.014Z,7.7
2023-05-25T08:44:42.543Z,7.9
2023-05-25T08:45:51.050Z,7.9
2023-05-25T08:46:59.313Z,7.9
2023-05-25T08:48:08.005Z,7.8
2023-05-25T08:49:16.237Z,7.8
2023-05-25T08:50:24.578Z,7.8
2023-05-25T08:51:33.122Z,7.8
2023-05-25T08:52:41.493Z,7.8
2023-05-25T08:53:49.874Z,7.8
2023-05-25T08:54:58.438Z,7.6
2023-05-25T08:56:06.801Z,7.6
2023-05-25T08:57:15.184Z,7.6
2023-05-25T08:58:23.710Z,7.9
2023-05-25T08:59:32.072Z,7.9
2023-05-25T09:00:40.458Z,7.9
2023-05-25T09:01:49.027Z,7.3
2023-05-25T09:02:57.445Z,7.3
2023-05-25T09:04:05.794Z,7.3
2023-05-25T09:05:14.306Z,6.7
2023-05-25T09:06:22.692Z,6.7
2023-05-25T09:07:31.050Z,6.7
2023-05-25T09:08:39.586Z,8.1
2023-05-25T09:09:47.958Z,8.1
2023-05-25T09:10:56.355Z,8.1
2023-05-25T09:12:04.889Z,7.9
2023-05-25T09:13:21.746Z,7.9
2023-05-25T09:14:21.624Z,7.9
2023-05-25T09:15:30.157Z,7.4
2023-05-25T09:16:38.610Z,7.4
2023-05-25T09:17:47.006Z,7.4
2023-05-25T09:18:55.555Z,7.8
2023-05-25T09:20:03.931Z,7.8
2023-05-25T09:21:12.302Z,7.8
2023-05-25T09:22:20.859Z,7.7
2023-05-25T09:23:29.251Z,7.7
2023-05-25T09:24:37.621Z,7.7
2023-05-25T09:25:46.201Z,7.3
2023-05-25T09:26:54.554Z,7.3
2023-05-25T09:28:10.405Z,7.3
2023-05-25T09:29:11.489Z,7.8
2023-05-25T09:30:19.873Z,7.8
2023-05-25T09:31:28.291Z,7.8
2023-05-25T09:32:36.894Z,7.2
2023-05-25T09:33:45.226Z,7.2
2023-05-25T09:34:53.651Z,7.2
2023-05-25T09:36:02.196Z,8
2023-05-25T09:37:10.734Z,8
2023-05-25T09:38:19.268Z,8
2023-05-25T09:39:27.705Z,7.3
2023-05-25T09:40:36.124Z,7.3
2023-05-25T09:41:44.447Z,7.3
2023-05-25T09:42:53.118Z,6.4
2023-05-25T09:44:10.877Z,6.4
2023-05-25T09:45:10.087Z,6.4
2023-05-25T09:46:18.793Z,7.2
2023-05-25T09:47:27.242Z,7.2
2023-05-25T09:48:35.622Z,7.2
2023-05-25T09:49:44.285Z,7.3
2023-05-25T09:50:52.786Z,7.3
2023-05-25T09:52:01.195Z,7.3
2023-05-25T09:53:09.859Z,7.2
2023-05-25T09:54:18.412Z,7.2
2023-05-25T09:55:31.649Z,7.2
2023-05-25T09:56:35.517Z,7.9
2023-05-25T09:57:43.981Z,7.9
2023-05-25T09:58:52.677Z,7.9
2023-05-25T10:00:01.300Z,8.9
2023-05-25T10:01:09.988Z,8.9
2023-05-25T10:02:18.458Z,8.9
2023-05-25T10:03:27.040Z,8.8
2023-05-25T10:04:35.452Z,8.8
2023-05-25T10:05:43.873Z,8.8
2023-05-25T10:06:52.571Z,9.3
2023-05-25T10:08:00.998Z,9.3
2023-05-25T10:09:09.428Z,9.3
2023-05-25T10:10:18.082Z,7.9
2023-05-25T10:11:26.587Z,7.9
2023-05-25T10:12:35.015Z,7.9
2023-05-25T10:13:43.676Z,8.3
2023-05-25T10:14:52.138Z,8.3
2023-05-25T10:16:00.605Z,8.3
2023-05-25T10:17:09.165Z,8.1
2023-05-25T10:18:17.556Z,8.1
2023-05-25T10:19:25.973Z,8.1
2023-05-25T10:20:35.237Z,9.2
2023-05-25T10:21:42.983Z,9.2
2023-05-25T10:22:51.394Z,9.2
2023-05-25T10:23:59.957Z,8.7
2023-05-25T10:25:08.377Z,8.7
2023-05-25T10:26:16.782Z,8.7
2023-05-25T10:27:26.777Z,9.3
2023-05-25T10:28:33.716Z,9.3
2023-05-25T10:29:42.095Z,9.3
2023-05-25T10:30:50.716Z,9.8
2023-05-25T10:31:59.143Z,9.8
2023-05-25T10:33:07.552Z,9.8
2023-05-25T10:34:16.132Z,8.7
2023-05-25T10:35:24.547Z,8.7
2023-05-25T10:36:32.957Z,8.7
2023-05-25T10:37:41.636Z,8.6
2023-05-25T10:38:50.524Z,8.6
2023-05-25T10:39:58.987Z,8.6
2023-05-25T10:41:07.678Z,8.5
2023-05-25T10:42:16.227Z,8.5
2023-05-25T10:43:24.697Z,8.5
2023-05-25T10:44:33.437Z,9.1
2023-05-25T10:45:42.129Z,9.1
2023-05-25T10:46:50.487Z,9.1
2023-05-25T10:47:59.232Z,8.8
2023-05-25T10:49:07.798Z,8.8
2023-05-25T10:50:16.318Z,8.8
2023-05-25T10:51:25.086Z,8.5
2023-05-25T10:52:33.679Z,8.5
2023-05-25T10:53:42.167Z,8.5
2023-05-25T10:54:51.011Z,8.9
2023-05-25T10:55:59.605Z,8.9
2023-05-25T10:57:08.146Z,8.9
2023-05-25T10:58:16.905Z,9.7
2023-05-25T10:59:25.537Z,9.7
2023-05-25T11:00:34.094Z,9.7
2023-05-25T11:01:42.684Z,8.8
2023-05-25T11:02:51.283Z,8.8
2023-05-25T11:03:59.682Z,8.8
2023-05-25T11:05:08.377Z,9.5
2023-05-25T11:06:20.535Z,9.5
2023-05-25T11:07:39.037Z,9.5
2023-05-25T11:08:50.204Z,9.3
2023-05-25T11:09:58.575Z,9.3
2023-05-25T11:11:06.849Z,9.3
2023-05-25T11:12:15.378Z,9.4
2023-05-25T11:13:23.722Z,9.4
2023-05-25T11:14:32.100Z,9.4
2023-05-25T11:15:40.664Z,8.8
2023-05-25T11:16:49.066Z,8.8
2023-05-25T11:17:57.390Z,8.8
2023-05-25T11:19:05.922Z,8.7
2023-05-25T11:20:14.296Z,8.7
2023-05-25T11:21:22.615Z,8.7
2023-05-25T11:22:31.164Z,8.1
2023-05-25T11:23:39.506Z,8.1
2023-05-25T11:24:47.837Z,8.1
2023-05-25T11:25:56.413Z,9.2
2023-05-25T11:27:04.748Z,9.2
2023-05-25T11:28:13.117Z,9.2
2023-05-25T11:29:21.675Z,8.5
2023-05-25T11:30:30.032Z,8.5
2023-05-25T11:31:42.408Z,8.5
2023-05-25T11:32:46.929Z,8.8
2023-05-25T11:33:55.261Z,8.8
2023-05-25T11:35:03.642Z,8.8
2023-05-25T11:36:12.184Z,8.8
2023-05-25T11:37:20.521Z,8.8
2023-05-25T11:38:28.894Z,8.8
2023-05-25T11:39:37.456Z,8.2
2023-05-25T11:40:45.849Z,8.2
2023-05-25T11:41:54.203Z,8.2
2023-05-25T11:43:02.727Z,8.3
2023-05-25T11:44:11.117Z,8.3
2023-05-25T11:45:19.455Z,8.3
2023-05-25T11:46:28.057Z,9.6
2023-05-25T11:47:38.011Z,9.6
2023-05-25T11:48:44.715Z,9.6
2023-05-25T11:49:53.347Z,7.9
2023-05-25T11:51:01.694Z,7.9
2023-05-25T11:52:10.045Z,7.9
2023-05-25T11:53:18.624Z,9.8
2023-05-25T11:54:26.982Z,9.8
2023-05-25T11:55:35.327Z,9.8
2023-05-25T11:56:43.877Z,8.2
2023-05-25T11:57:52.230Z,8.2
2023-05-25T11:59:00.549Z,8.2
2023-05-25T12:00:09.152Z,8.6
2023-05-25T12:01:17.482Z,8.6
2023-05-25T12:02:25.880Z,8.6
2023-05-25T12:03:34.582Z,8.5
2023-05-25T12:04:42.895Z,8.5
2023-05-25T12:05:51.146Z,8.5
2023-05-25T12:06:59.717Z,9.4
2023-05-25T12:08:08.044Z,9.4
2023-05-25T12:09:16.386Z,9.4
2023-05-25T12:10:24.973Z,8.4
2023-05-25T12:11:33.328Z,8.4
2023-05-25T12:12:41.708Z,8.4
2023-05-25T12:13:50.288Z,9.4
2023-05-25T12:14:59.113Z,9.4
2023-05-25T12:16:07.153Z,9.4
2023-05-25T12:17:15.753Z,9.1
2023-05-25T12:18:24.070Z,9.1
2023-05-25T12:19:32.463Z,9.1
2023-05-25T12:20:41.059Z,8.4
2023-05-25T12:21:49.373Z,8.4
2023-05-25T12:22:57.734Z,8.4
2023-05-25T12:24:06.387Z,8.7
2023-05-25T12:25:14.647Z,8.7
2023-05-25T12:26:22.969Z,8.7
2023-05-25T12:27:31.543Z,8.5
2023-05-25T12:28:39.878Z,8.5
2023-05-25T12:29:48.260Z,8.5
2023-05-25T12:30:56.824Z,8.6
2023-05-25T12:32:05.131Z,8.6
2023-05-25T12:33:13.548Z,8.6
2023-05-25T12:34:22.056Z,8.4
2023-05-25T12:35:30.416Z,8.4
2023-05-25T12:36:38.748Z,8.4
2023-05-25T12:37:47.329Z,8.2
2023-05-25T12:38:55.672Z,8.2
2023-05-25T12:40:04.016Z,8.2
2023-05-25T12:41:12.561Z,7.8
2023-05-25T12:42:20.933Z,7.8
2023-05-25T12:43:29.290Z,7.8
2023-05-25T12:44:37.837Z,7.4
2023-05-25T12:45:46.263Z,7.4
2023-05-25T12:46:54.634Z,7.4
2023-05-25T12:48:03.183Z,7.1
2023-05-25T12:49:11.522Z,7.1
2023-05-25T12:50:19.894Z,7.1
2023-05-25T12:51:28.448Z,7.1
2023-05-25T12:52:36.849Z,7.1
2023-05-25T12:53:45.164Z,7.1
2023-05-25T12:54:53.701Z,6.5
2023-05-25T12:56:02.057Z,6.5
2023-05-25T12:57:10.416Z,6.5
2023-05-25T12:58:18.996Z,6.3
2023-05-25T12:59:27.357Z,6.3
2023-05-25T13:00:35.698Z,6.3
2023-05-25T13:01:44.298Z,7.1
2023-05-25T13:02:52.655Z,7.1
2023-05-25T13:04:00.942Z,7.1
2023-05-25T13:05:09.526Z,6.4
2023-05-25T13:06:17.927Z,6.4
2023-05-25T13:07:26.257Z,6.4
2023-05-25T13:08:34.817Z,6.9
2023-05-25T13:09:43.170Z,6.9
2023-05-25T13:10:51.584Z,6.9
2023-05-25T13:12:00.066Z,7.2
2023-05-25T13:13:08.399Z,7.2
2023-05-25T13:14:16.742Z,7.2
2023-05-25T13:15:25.305Z,8
2023-05-25T13:16:33.672Z,8
2023-05-25T13:17:42.046Z,8
2023-05-25T13:18:50.533Z,7.5
2023-05-25T13:19:58.928Z,7.5
2023-05-25T13:21:07.308Z,7.5
2023-05-25T13:22:15.888Z,7.5
2023-05-25T13:23:24.251Z,7.5
2023-05-25T13:24:32.616Z,7.5
2023-05-25T13:25:41.192Z,6.3
2023-05-25T13:26:50.789Z,6.3
2023-05-25T13:27:58.134Z,6.3
2023-05-25T13:29:06.458Z,5.9
2023-05-25T13:30:14.813Z,5.9
2023-05-25T13:31:23.233Z,5.9
2023-05-25T13:32:31.784Z,6.6
2023-05-25T13:33:40.097Z,6.6
2023-05-25T13:34:48.411Z,6.6
2023-05-25T13:35:57.016Z,6.4
2023-05-25T13:37:05.368Z,6.4
2023-05-25T13:38:15.838Z,6.4
2023-05-25T13:39:22.274Z,6.6
2023-05-25T13:40:30.629Z,6.6
2023-05-25T13:41:38.947Z,6.6
2023-05-25T13:42:47.529Z,6.2
2023-05-25T13:43:55.897Z,6.2
2023-05-25T13:45:04.218Z,6.2
2023-05-25T13:46:22.181Z,6.3
2023-05-25T13:47:22.283Z,6.3
2023-05-25T13:48:30.621Z,6.3
2023-05-25T13:49:39.153Z,6
2023-05-25T13:50:47.473Z,6
2023-05-25T13:51:55.802Z,6
2023-05-25T13:53:04.362Z,6.5
2023-05-25T13:54:12.821Z,6.5
2023-05-25T13:55:21.081Z,6.5
2023-05-25T13:56:29.630Z,7.2
2023-05-25T13:57:37.996Z,7.2
2023-05-25T13:58:46.333Z,7.2
2023-05-25T13:59:54.887Z,7.6
2023-05-25T14:01:03.217Z,7.6
2023-05-25T14:02:11.587Z,7.6
2023-05-25T14:03:20.223Z,6.4
2023-05-25T14:04:28.442Z,6.4
2023-05-25T14:05:36.808Z,6.4
2023-05-25T14:06:45.349Z,6.6
2023-05-25T14:07:55.726Z,6.6
2023-05-25T14:09:02.029Z,6.6
2023-05-25T14:10:10.633Z,5.9
2023-05-25T14:11:24.236Z,5.9
2023-05-25T14:12:27.309Z,5.9
2023-05-25T14:13:35.852Z,6.3
2023-05-25T14:14:44.179Z,6.3
2023-05-25T14:15:52.603Z,6.3
2023-05-25T14:17:01.230Z,5.8
2023-05-25T14:18:09.440Z,5.8
2023-05-25T14:19:17.761Z,5.8
2023-05-25T14:20:26.505Z,6.3
2023-05-25T14:21:34.689Z,6.3
2023-05-25T14:22:43.015Z,6.3
2023-05-25T14:23:51.574Z,6
2023-05-25T14:24:59.917Z,6
2023-05-25T14:26:08.280Z,6
2023-05-25T14:27:16.855Z,6.3
2023-05-25T14:28:25.205Z,6.3
2023-05-25T14:29:33.551Z,6.3
2023-05-25T14:30:42.108Z,6
2023-05-25T14:31:50.471Z,6
2023-05-25T14:32:58.826Z,6
2023-05-25T14:34:07.375Z,6.3
2023-05-25T14:35:15.718Z,6.3
2023-05-25T14:36:24.078Z,6.3
2023-05-25T14:37:32.648Z,5.9
2023-05-25T14:38:40.982Z,5.9
2023-05-25T14:39:49.350Z,5.9
2023-05-25T14:40:57.890Z,6.1
2023-05-25T14:42:06.219Z,6.1
2023-05-25T14:43:14.562Z,6.1
2023-05-25T14:44:23.100Z,6.3
2023-05-25T14:45:31.481Z,6.3
2023-05-25T14:46:39.860Z,6.3
2023-05-25T14:47:48.437Z,6.1
2023-05-25T14:48:57.029Z,6.1
2023-05-25T14:50:05.383Z,6.1
2023-05-25T14:51:13.963Z,5.1
2023-05-25T14:52:22.348Z,5.1
2023-05-25T14:53:30.688Z,5.1
2023-05-25T14:54:39.231Z,5.8
2023-05-25T14:55:47.606Z,5.8
2023-05-25T14:56:55.930Z,5.8
2023-05-25T14:58:04.469Z,5.6
2023-05-25T14:59:12.813Z,5.6
2023-05-25T15:00:21.177Z,5.6
2023-05-25T15:01:29.879Z,5.5
2023-05-25T15:02:38.144Z,5.5
2023-05-25T15:03:46.530Z,5.5
2023-05-25T15:04:54.966Z,5.7
2023-05-25T15:06:03.314Z,5.7
2023-05-25T15:07:12.969Z,5.7
2023-05-25T15:08:20.248Z,5.7
2023-05-25T15:09:28.602Z,5.7
2023-05-25T15:10:36.936Z,5.7
2023-05-25T15:44:55.277Z,0
2023-05-25T15:46:03.584Z,0
2023-05-25T15:47:11.925Z,0
2023-05-25T15:48:20.456Z,5.9
2023-05-25T15:49:28.813Z,5.9
2023-05-25T15:50:37.134Z,5.9
2023-05-25T15:51:45.688Z,6.3
2023-05-25T15:52:54.030Z,6.3
2023-05-25T15:54:02.619Z,6.3
2023-05-25T15:55:11.172Z,6.1
2023-05-25T15:56:19.507Z,6.1
2023-05-25T15:57:27.840Z,6.1
2023-05-25T15:58:36.389Z,6.3
2023-05-25T15:59:44.725Z,6.3
2023-05-25T16:00:53.095Z,6.3
2023-05-25T16:02:01.642Z,6.8
2023-05-25T16:03:09.986Z,6.8
2023-05-25T16:04:18.402Z,6.8
2023-05-25T16:05:26.883Z,6.2
2023-05-25T16:06:35.233Z,6.2
2023-05-25T16:07:43.572Z,6.2
2023-05-25T16:08:52.113Z,6.2
2023-05-25T16:10:00.447Z,6.2
2023-05-25T16:11:09.163Z,6.2
2023-05-25T16:12:18.247Z,6.8
2023-05-25T16:13:26.582Z,6.8
2023-05-25T16:14:43.446Z,6.8
2023-05-25T16:15:52.116Z,6.2
2023-05-25T16:17:00.462Z,6.2